Time;durP1;ratioP1;P1;durP2;ratioP2;P2;SDS_P1;SDS_P2;PMS_P1;PMS_P2;Temp;Humidity;BMP_temperature;BMP_pressure;BME280_temperature;BME280_humidity;BME280_pressure;Samples;Min_cycle;Max_cycle;Signal;HPM_P1;HPM_P2
2022/08/05 00:01:38;;;;;;;15.47;10.27;;;;;;;22.02;51.38;100046.41;30026126;29;97245;-60
2022/08/05 00:16:38;;;;;;;10.47;6.60;;;;;;;21.70;52.06;100039.72;30023655;29;97029;-60
2022/08/05 00:31:38;;;;;;;9.23;5.87;;;;;;;21.51;52.96;100036.41;30021695;29;107600;-59
2022/08/05 00:46:39;;;;;;;10.30;6.20;;;;;;;21.68;52.97;100030.19;30018468;29;104201;-58
2022/08/05 01:01:40;;;;;;;10.00;6.20;;;;;;;21.28;53.27;100016.56;30018407;29;97239;-59
2022/08/05 01:17:01;;;;;;;8.37;5.83;;;;;;;20.86;54.34;100003.38;30019416;29;97383;-59
2022/08/05 01:32:05;;;;;;;10.80;6.30;;;;;;;20.68;55.01;99984.56;30018159;29;96769;-60
2022/08/05 01:47:07;;;;;;;6.30;5.53;;;;;;;20.44;55.72;99976.56;30016107;29;96696;-60
2022/08/05 02:02:11;;;;;;;11.27;6.57;;;;;;;20.37;56.04;99970.47;30017449;29;96763;-60
2022/08/05 02:17:22;;;;;;;12.50;6.23;;;;;;;20.50;56.09;99967.47;30027004;29;97403;-59
2022/08/05 02:32:24;;;;;;;;;;;;;;;20.07;56.68;99964.19;30034751;29;96600;-59
2022/08/05 02:47:28;;;;;;;12.83;6.73;;;;;;;19.72;57.64;99950.72;30033988;29;97460;-62
2022/08/05 03:02:33;;;;;;;10.77;6.60;;;;;;;19.51;58.35;99950.25;30029135;29;97671;-61
2022/08/05 03:17:34;;;;;;;15.17;7.30;;;;;;;19.31;58.89;99934.38;30028651;29;97368;-62
2022/08/05 03:32:36;;;;;;;14.53;7.53;;;;;;;19.51;59.37;99934.03;30025526;29;97379;-63
2022/08/05 03:47:36;;;;;;;14.90;8.27;;;;;;;19.42;59.30;99927.34;30026120;29;96734;-60
2022/08/05 04:02:41;;;;;;;9.90;7.03;;;;;;;19.30;59.81;99926.53;30024040;29;102433;-61
2022/08/05 04:17:41;;;;;;;12.83;7.80;;;;;;;19.28;60.33;99919.47;30021656;29;98653;-60
2022/08/05 04:32:42;;;;;;;13.75;7.72;;;;;;;19.46;60.56;99915.00;30021157;29;97352;-62
2022/08/05 04:47:42;;;;;;;11.23;7.00;;;;;;;19.77;60.45;99915.69;30019957;29;105154;-62
2022/08/05 05:02:42;;;;;;;14.77;7.55;;;;;;;20.04;60.18;99928.69;30009270;29;98887;-62
2022/08/05 05:17:43;;;;;;;12.75;7.88;;;;;;;20.43;59.88;99918.09;30015654;29;96747;-60
2022/08/05 05:32:43;;;;;;;12.70;7.75;;;;;;;20.91;59.06;99924.94;30016113;29;97462;-63
2022/08/05 05:47:44;;;;;;;15.57;8.00;;;;;;;21.51;58.38;99921.78;30021025;29;96708;-63
2022/08/05 06:02:46;;;;;;;11.57;7.50;;;;;;;22.11;57.56;99922.84;30034586;29;97101;-63
2022/08/05 06:17:46;;;;;;;10.57;7.77;;;;;;;23.01;56.36;99916.16;30030465;29;97212;-61
2022/08/05 06:32:47;;;;;;;10.27;6.63;;;;;;;23.93;54.40;99924.09;30031842;29;114296;-61
2022/08/05 06:47:48;;;;;;;12.90;7.13;;;;;;;24.66;52.17;99918.63;30027102;29;98151;-63
2022/08/05 07:02:49;;;;;;;12.30;6.38;;;;;;;25.68;50.38;99911.44;30025519;29;97137;-62
2022/08/05 07:17:49;;;;;;;11.20;6.82;;;;;;;26.93;46.78;99904.22;30025966;29;97701;-62
2022/08/05 07:32:49;;;;;;;14.27;6.45;;;;;;;27.93;44.76;99902.91;30022908;29;96741;-60
2022/08/05 07:47:50;;;;;;;16.55;6.57;;;;;;;27.79;44.16;99900.06;30022198;29;97063;-60
2022/08/05 08:02:50;;;;;;;8.98;6.07;;;;;;;29.07;42.04;99899.34;30024373;29;96696;-60
2022/08/05 08:17:50;;;;;;;12.77;5.43;;;;;;;30.02;39.53;99902.47;30016531;29;97293;-60
2022/08/05 08:32:51;;;;;;;10.50;4.80;;;;;;;30.77;37.30;99887.56;30025627;29;98949;-60
2022/08/05 08:47:53;;;;;;;9.70;4.65;;;;;;;32.14;34.27;99883.28;30085814;28;98415;-59
2022/08/05 09:02:55;;;;;;;9.73;4.00;;;;;;;32.78;32.45;99879.06;30012515;29;96770;-61
2022/08/05 09:17:55;;;;;;;8.13;4.40;;;;;;;33.27;30.62;99874.06;30021782;29;99445;-60
2022/08/05 09:33:01;;;;;;;4.47;3.55;;;;;;;34.54;28.91;99874.25;30026131;29;97078;-61
2022/08/05 09:48:18;;;;;;;5.50;3.30;;;;;;;35.16;26.08;99863.34;30024009;29;98918;-62
2022/08/05 10:03:19;;;;;;;7.07;3.03;;;;;;;36.22;25.24;99863.53;30045281;29;97532;-60
2022/08/05 10:18:24;;;;;;;5.63;3.00;;;;;;;36.50;24.14;99844.13;30020673;29;96920;-61
2022/08/05 10:33:28;;;;;;;4.53;2.73;;;;;;;36.55;22.93;99831.97;30024640;29;97681;-59
2022/08/05 10:48:29;;;;;;;;;;;;;;;36.71;21.60;99827.25;30026959;29;96848;-60
2022/08/05 11:03:29;;;;;;;3.70;2.83;;;;;;;37.49;21.31;99826.03;30028112;29;97336;-60
2022/08/05 11:18:32;;;;;;;6.22;2.40;;;;;;;37.55;20.62;99816.22;30026443;29;96791;-60
2022/08/05 11:33:37;;;;;;;3.93;2.83;;;;;;;38.26;19.82;99803.09;30025605;29;96957;-62
2022/08/05 11:48:40;;;;;;;4.83;2.47;;;;;;;37.96;18.46;99811.19;30015088;29;97591;-63
2022/08/05 12:03:45;;;;;;;;;;;;;;;37.46;18.37;99812.88;30012824;29;97346;-63
2022/08/05 12:18:46;;;;;;;7.30;2.30;;;;;;;37.40;18.47;99790.91;30015583;29;97525;-61
2022/08/05 12:33:47;;;;;;;2.70;2.20;;;;;;;37.45;18.32;99775.94;30017366;29;97504;-61
2022/08/05 12:49:12;;;;;;;4.13;2.38;;;;;;;37.70;18.22;99781.22;30013632;29;97853;-63
2022/08/05 13:04:15;;;;;;;4.03;2.23;;;;;;;37.40;17.81;99768.69;30011657;29;97175;-63
2022/08/05 13:19:16;;;;;;;2.80;2.00;;;;;;;37.29;18.14;99762.09;30012290;29;98336;-62
2022/08/05 13:34:16;;;;;;;2.75;1.98;;;;;;;36.54;18.64;99750.72;30007008;29;98070;-64
2022/08/05 13:49:17;;;;;;;4.75;2.13;;;;;;;37.35;18.34;99746.75;30004773;29;97504;-62
2022/08/05 14:19:36;;;;;;;3.00;2.17;;;;;;;37.56;18.45;99734.50;30022700;29;97980;-61
2022/08/05 14:34:36;;;;;;;4.13;2.25;;;;;;;36.08;19.54;99731.66;30015619;29;97251;-61
2022/08/05 14:49:36;;;;;;;7.28;2.42;;;;;;;35.72;20.45;99727.88;30014220;29;97348;-61
2022/08/05 15:04:37;;;;;;;3.90;2.22;;;;;;;35.20;21.09;99718.38;30020101;29;100384;-61
2022/08/05 15:19:37;;;;;;;4.53;2.58;;;;;;;35.07;21.18;99714.81;30015980;29;97430;-60
2022/08/05 15:34:37;;;;;;;4.78;2.60;;;;;;;35.24;21.65;99715.72;30024074;29;97408;-61
2022/08/05 15:49:38;;;;;;;3.15;2.38;;;;;;;34.99;21.61;99690.84;30020815;29;96814;-61
2022/08/05 16:04:38;;;;;;;4.85;2.20;;;;;;;34.89;21.34;99680.25;30013020;29;98134;-62
2022/08/05 16:19:39;;;;;;;3.88;2.47;;;;;;;34.98;21.50;99688.44;30012155;29;97610;-60
2022/08/05 16:34:39;;;;;;;3.42;2.20;;;;;;;34.65;22.02;99670.78;30008652;29;97218;-63
2022/08/05 16:49:40;;;;;;;4.13;2.40;;;;;;;34.43;22.07;99674.78;30010378;29;102914;-61
2022/08/05 17:04:41;;;;;;;6.43;3.40;;;;;;;34.35;22.51;99673.75;30011006;28;97077;-63
2022/08/05 17:19:43;;;;;;;3.75;2.58;;;;;;;33.99;23.36;99683.53;30002184;29;100372;-63
2022/08/05 17:34:45;;;;;;;8.87;2.73;;;;;;;33.74;25.16;99705.53;30006417;29;97586;-62
2022/08/05 17:49:45;;;;;;;6.90;2.77;;;;;;;33.22;27.44;99714.97;30030481;29;96640;-60
2022/08/05 18:04:46;;;;;;;11.80;2.97;;;;;;;32.63;29.49;99721.28;30033223;29;97520;-60
2022/08/05 18:19:46;;;;;;;6.80;3.17;;;;;;;32.17;30.55;99731.13;30022044;29;96860;-61
2022/08/05 18:34:46;;;;;;;11.00;5.50;;;;;;;31.48;33.10;99751.97;30027447;29;96797;-61
2022/08/05 19:05:06;;;;;;;8.60;6.13;;;;;;;30.44;34.51;99814.47;30012899;29;97143;-60
2022/08/05 19:20:07;;;;;;;15.33;6.53;;;;;;;29.81;37.13;99849.91;30020898;29;97390;-61
2022/08/05 19:35:08;;;;;;;11.57;6.03;;;;;;;29.41;38.66;99854.31;30017152;29;97269;-60
2022/08/05 19:50:08;;;;;;;12.77;4.97;;;;;;;29.00;39.44;99880.53;30016284;29;97337;-60
2022/08/05 20:05:09;;;;;;;6.30;5.00;;;;;;;28.65;40.13;99891.81;30014766;29;97245;-62
2022/08/05 20:20:10;;;;;;;7.17;4.17;;;;;;;28.46;40.29;99907.41;30013541;29;96768;-61
2022/08/05 20:35:11;;;;;;;6.17;4.07;;;;;;;28.05;41.11;99947.13;30012854;29;97492;-61
2022/08/05 20:50:11;;;;;;;6.22;3.78;;;;;;;27.82;41.88;99965.19;30010800;29;97361;-62
2022/08/05 21:05:11;;;;;;;8.23;4.15;;;;;;;27.49;42.45;99984.94;30011446;29;97240;-60
2022/08/05 21:20:12;;;;;;;8.38;3.63;;;;;;;26.84;43.73;100017.97;30020049;29;97290;-60
2022/08/05 21:35:12;;;;;;;6.15;4.00;;;;;;;26.42;45.36;100079.34;30028781;29;97138;-60
2022/08/05 21:50:14;;;;;;;9.57;4.25;;;;;;;26.47;46.16;100058.28;30028092;29;103685;-60
2022/08/05 22:05:15;;;;;;;5.03;3.70;;;;;;;26.54;46.69;100074.38;30022997;29;98341;-60
2022/08/05 22:20:15;;;;;;;7.90;4.00;;;;;;;26.40;47.81;100065.16;30023357;29;97204;-60
2022/08/05 22:35:15;;;;;;;5.13;3.97;;;;;;;25.80;51.50;100098.56;30020895;29;101457;-60
2022/08/05 22:50:16;;;;;;;4.70;4.00;;;;;;;25.60;52.54;100110.28;30021615;29;97195;-59
2022/08/05 23:05:17;;;;;;;6.55;3.80;;;;;;;25.45;53.47;100108.38;30022030;29;97420;-59
2022/08/05 23:20:17;;;;;;;7.77;3.93;;;;;;;25.23;54.46;100119.50;30086849;29;97360;-58
2022/08/05 23:35:17;;;;;;;6.00;4.22;;;;;;;24.73;55.49;100129.97;30075748;28;97098;-59
2022/08/05 23:50:18;;;;;;;5.95;4.57;;;;;;;24.38;56.61;100158.63;30027248;29;96693;-59
